sensor_id;sensor_type;location;lat;lon;timestamp;pressure;altitude;pressure_sealevel;temperature;humidity
74542;BME280;63015;45.378;20.360;2023-04-29T00:00:49;100626.69;;;12.37;46.02
74542;BME280;63015;45.378;20.360;2023-04-29T00:02:49;100627.53;;;12.42;46.05
74542;BME280;63015;45.378;20.360;2023-04-29T00:04:50;100633.63;;;12.41;46.11
74542;BME280;63015;45.378;20.360;2023-04-29T00:06:50;100624.88;;;12.46;46.04
74542;BME280;63015;45.378;20.360;2023-04-29T00:08:51;100630.09;;;12.46;46.14
74542;BME280;63015;45.378;20.360;2023-04-29T00:10:52;100633.59;;;12.48;46.02
74542;BME280;63015;45.378;20.360;2023-04-29T00:12:53;100631.00;;;12.47;46.22
74542;BME280;63015;45.378;20.360;2023-04-29T00:14:54;100630.09;;;12.46;46.31
74542;BME280;63015;45.378;20.360;2023-04-29T00:16:54;100637.94;;;12.46;46.26
74542;BME280;63015;45.378;20.360;2023-04-29T00:18:55;100642.31;;;12.43;46.26
74542;BME280;63015;45.378;20.360;2023-04-29T00:20:55;100644.91;;;12.47;46.15
74542;BME280;63015;45.378;20.360;2023-04-29T00:22:56;100640.56;;;12.48;46.17
74542;BME280;63015;45.378;20.360;2023-04-29T00:24:56;100644.91;;;12.47;46.15
74542;BME280;63015;45.378;20.360;2023-04-29T00:26:57;100644.91;;;12.49;46.22
74542;BME280;63015;45.378;20.360;2023-04-29T00:28:58;100649.31;;;12.42;46.61
74542;BME280;63015;45.378;20.360;2023-04-29T00:30:59;100651.91;;;12.47;46.51
74542;BME280;63015;45.378;20.360;2023-04-29T00:33:00;100649.28;;;12.47;46.64
74542;BME280;63015;45.378;20.360;2023-04-29T00:35:01;100658.03;;;12.44;47.11
74542;BME280;63015;45.378;20.360;2023-04-29T00:37:02;100661.50;;;12.42;47.14
74542;BME280;63015;45.378;20.360;2023-04-29T00:39:03;100664.97;;;12.44;47.01
74542;BME280;63015;45.378;20.360;2023-04-29T00:41:04;100669.31;;;12.48;46.90
74542;BME280;63015;45.378;20.360;2023-04-29T00:43:05;100667.53;;;12.52;47.08
74542;BME280;63015;45.378;20.360;2023-04-29T00:45:09;100671.88;;;12.59;46.71
74542;BME280;63015;45.378;20.360;2023-04-29T00:47:12;100668.38;;;12.58;46.76
74542;BME280;63015;45.378;20.360;2023-04-29T00:49:13;100668.41;;;12.60;46.54
74542;BME280;63015;45.378;20.360;2023-04-29T00:51:16;100668.38;;;12.58;46.65
74542;BME280;63015;45.378;20.360;2023-04-29T00:53:17;100661.47;;;12.51;46.89
74542;BME280;63015;45.378;20.360;2023-04-29T00:55:18;100659.69;;;12.52;47.21
74542;BME280;63015;45.378;20.360;2023-04-29T00:57:19;100655.38;;;12.49;47.59
74542;BME280;63015;45.378;20.360;2023-04-29T00:59:20;100653.63;;;12.48;48.28
74542;BME280;63015;45.378;20.360;2023-04-29T01:01:22;100654.56;;;12.36;49.10
74542;BME280;63015;45.378;20.360;2023-04-29T01:03:23;100656.34;;;12.26;49.77
74542;BME280;63015;45.378;20.360;2023-04-29T01:05:24;100660.69;;;12.30;49.67
74542;BME280;63015;45.378;20.360;2023-04-29T01:07:38;100656.34;;;12.25;50.07
74542;BME280;63015;45.378;20.360;2023-04-29T01:12:25;100660.78;;;12.07;50.73
74542;BME280;63015;45.378;20.360;2023-04-29T01:14:32;100657.28;;;12.07;50.60
74542;BME280;63015;45.378;20.360;2023-04-29T01:18:54;100652.97;;;11.96;51.44
74542;BME280;63015;45.378;20.360;2023-04-29T01:21:01;100655.56;;;11.96;51.07
74542;BME280;63015;45.378;20.360;2023-04-29T01:23:02;100655.56;;;12.01;50.94
74542;BME280;63015;45.378;20.360;2023-04-29T01:25:03;100662.53;;;11.99;50.96
74542;BME280;63015;45.378;20.360;2023-04-29T01:27:20;100664.28;;;11.98;51.09
74542;BME280;63015;45.378;20.360;2023-04-29T01:29:28;100658.19;;;11.96;51.03
74542;BME280;63015;45.378;20.360;2023-04-29T01:31:48;100658.19;;;11.90;51.09
74542;BME280;63015;45.378;20.360;2023-04-29T01:34:04;100652.06;;;11.90;50.96
74542;BME280;63015;45.378;20.360;2023-04-29T01:41:07;100643.41;;;11.78;51.54
74542;BME280;63015;45.378;20.360;2023-04-29T01:43:10;100643.41;;;11.81;51.14
74542;BME280;63015;45.378;20.360;2023-04-29T01:45:15;100631.19;;;11.83;50.75
74542;BME280;63015;45.378;20.360;2023-04-29T01:47:21;100638.16;;;11.84;50.48
74542;BME280;63015;45.378;20.360;2023-04-29T01:49:26;100639.91;;;11.87;50.29
74542;BME280;63015;45.378;20.360;2023-04-29T01:51:27;100634.69;;;11.81;50.11
74542;BME280;63015;45.378;20.360;2023-04-29T01:53:29;100636.41;;;11.91;50.15
74542;BME280;63015;45.378;20.360;2023-04-29T01:55:29;100641.63;;;11.90;50.31
74542;BME280;63015;45.378;20.360;2023-04-29T01:57:44;100636.41;;;11.94;50.21
74542;BME280;63015;45.378;20.360;2023-04-29T02:00:06;100644.25;;;11.96;50.13
74542;BME280;63015;45.378;20.360;2023-04-29T02:02:13;100650.34;;;11.96;50.01
74542;BME280;63015;45.378;20.360;2023-04-29T02:04:24;100649.47;;;11.97;49.83
74542;BME280;63015;45.378;20.360;2023-04-29T02:06:25;100655.56;;;12.03;49.58
74542;BME280;63015;45.378;20.360;2023-04-29T02:08:31;100646.00;;;11.98;49.48
74542;BME280;63015;45.378;20.360;2023-04-29T02:10:33;100637.28;;;11.99;49.37
74542;BME280;63015;45.378;20.360;2023-04-29T02:13:02;100632.03;;;12.04;49.63
74542;BME280;63015;45.378;20.360;2023-04-29T02:15:04;100636.41;;;12.02;49.53
74542;BME280;63015;45.378;20.360;2023-04-29T02:17:05;100637.25;;;12.04;49.53
74542;BME280;63015;45.378;20.360;2023-04-29T02:19:06;100645.97;;;12.06;49.63
74542;BME280;63015;45.378;20.360;2023-04-29T02:21:06;100652.09;;;12.02;49.71
74542;BME280;63015;45.378;20.360;2023-04-29T02:23:09;100651.16;;;12.09;49.60
74542;BME280;63015;45.378;20.360;2023-04-29T02:25:10;100650.34;;;12.03;49.87
74542;BME280;63015;45.378;20.360;2023-04-29T02:27:11;100645.09;;;12.09;49.50
74542;BME280;63015;45.378;20.360;2023-04-29T02:29:11;100637.25;;;12.10;49.48
74542;BME280;63015;45.378;20.360;2023-04-29T02:31:12;100638.06;;;12.17;49.50
74542;BME280;63015;45.378;20.360;2023-04-29T02:33:13;100644.19;;;12.14;49.88
74542;BME280;63015;45.378;20.360;2023-04-29T02:35:13;100636.38;;;12.13;50.01
74542;BME280;63015;45.378;20.360;2023-04-29T02:37:14;100641.63;;;12.08;50.92
74542;BME280;63015;45.378;20.360;2023-04-29T02:39:15;100643.34;;;12.09;50.43
74542;BME280;63015;45.378;20.360;2023-04-29T02:41:16;100645.09;;;12.09;50.55
74542;BME280;63015;45.378;20.360;2023-04-29T02:43:17;100637.28;;;12.03;50.68
74542;BME280;63015;45.378;20.360;2023-04-29T02:45:18;100638.19;;;11.95;51.03
74542;BME280;63015;45.378;20.360;2023-04-29T02:47:19;100627.75;;;11.95;51.21
74542;BME280;63015;45.378;20.360;2023-04-29T02:49:20;100620.72;;;11.99;51.02
74542;BME280;63015;45.378;20.360;2023-04-29T02:51:20;100622.50;;;11.95;50.91
74542;BME280;63015;45.378;20.360;2023-04-29T02:53:21;100620.75;;;11.96;50.59
74542;BME280;63015;45.378;20.360;2023-04-29T02:55:22;100625.97;;;12.00;50.09
74542;BME280;63015;45.378;20.360;2023-04-29T02:57:23;100623.34;;;12.05;49.90
74542;BME280;63015;45.378;20.360;2023-04-29T02:59:24;100628.53;;;12.11;49.73
74542;BME280;63015;45.378;20.360;2023-04-29T03:01:25;100613.72;;;12.12;49.73
74542;BME280;63015;45.378;20.360;2023-04-29T03:03:25;100618.09;;;12.11;49.64
74542;BME280;63015;45.378;20.360;2023-04-29T03:05:26;100614.59;;;12.09;49.77
74542;BME280;63015;45.378;20.360;2023-04-29T03:07:28;100613.72;;;12.10;49.69
74542;BME280;63015;45.378;20.360;2023-04-29T03:09:29;100624.19;;;12.10;49.60
74542;BME280;63015;45.378;20.360;2023-04-29T03:11:30;100625.06;;;12.12;49.46
74542;BME280;63015;45.378;20.360;2023-04-29T03:13:31;100622.47;;;12.05;49.60
74542;BME280;63015;45.378;20.360;2023-04-29T03:15:32;100627.69;;;12.05;49.60
74542;BME280;63015;45.378;20.360;2023-04-29T03:17:32;100619.88;;;11.91;49.92
74542;BME280;63015;45.378;20.360;2023-04-29T03:19:34;100623.34;;;11.99;49.66
74542;BME280;63015;45.378;20.360;2023-04-29T03:21:35;100624.22;;;12.01;49.82
74542;BME280;63015;45.378;20.360;2023-04-29T03:23:35;100618.13;;;11.99;49.82
74542;BME280;63015;45.378;20.360;2023-04-29T03:25:38;100613.75;;;11.95;49.81
74542;BME280;63015;45.378;20.360;2023-04-29T03:27:40;100615.50;;;11.91;50.04
74542;BME280;63015;45.378;20.360;2023-04-29T03:29:41;100612.91;;;11.90;50.08
74542;BME280;63015;45.378;20.360;2023-04-29T03:31:42;100612.94;;;11.87;49.93
74542;BME280;63015;45.378;20.360;2023-04-29T03:33:42;100619.88;;;11.92;49.84
74542;BME280;63015;45.378;20.360;2023-04-29T03:35:43;100615.50;;;11.94;49.51
74542;BME280;63015;45.378;20.360;2023-04-29T03:38:03;100624.22;;;11.92;49.77
74542;BME280;63015;45.378;20.360;2023-04-29T03:40:07;100625.97;;;11.88;50.17
74542;BME280;63015;45.378;20.360;2023-04-29T03:42:08;100618.13;;;11.88;50.65
74542;BME280;63015;45.378;20.360;2023-04-29T03:44:10;100627.72;;;11.78;51.26
74542;BME280;63015;45.378;20.360;2023-04-29T03:46:10;100622.53;;;11.74;51.53
74542;BME280;63015;45.378;20.360;2023-04-29T03:48:11;100626.88;;;11.72;51.77
74542;BME280;63015;45.378;20.360;2023-04-29T03:50:12;100632.16;;;11.59;52.80
74542;BME280;63015;45.378;20.360;2023-04-29T03:52:14;100639.06;;;11.60;52.55
74542;BME280;63015;45.378;20.360;2023-04-29T03:54:16;100634.75;;;11.61;52.96
74542;BME280;63015;45.378;20.360;2023-04-29T03:56:16;100633.00;;;11.47;54.44
74542;BME280;63015;45.378;20.360;2023-04-29T03:58:17;100632.16;;;11.44;54.31
74542;BME280;63015;45.378;20.360;2023-04-29T04:00:19;100629.53;;;11.48;54.11
74542;BME280;63015;45.378;20.360;2023-04-29T04:02:26;100633.91;;;11.48;54.37
74542;BME280;63015;45.378;20.360;2023-04-29T04:04:26;100633.03;;;11.44;54.45
74542;BME280;63015;45.378;20.360;2023-04-29T04:06:27;100631.31;;;11.39;54.56
74542;BME280;63015;45.378;20.360;2023-04-29T04:08:28;100633.91;;;11.39;54.53
74542;BME280;63015;45.378;20.360;2023-04-29T04:10:31;100632.19;;;11.36;54.93
74542;BME280;63015;45.378;20.360;2023-04-29T04:12:34;100636.50;;;11.40;54.37
74542;BME280;63015;45.378;20.360;2023-04-29T04:14:35;100646.94;;;11.42;54.13
74542;BME280;63015;45.378;20.360;2023-04-29T04:16:36;100646.94;;;11.42;54.18
74542;BME280;63015;45.378;20.360;2023-04-29T04:18:37;100640.84;;;11.47;53.91
74542;BME280;63015;45.378;20.360;2023-04-29T04:20:38;100634.75;;;11.50;53.51
74542;BME280;63015;45.378;20.360;2023-04-29T04:22:39;100641.69;;;11.52;53.08
74542;BME280;63015;45.378;20.360;2023-04-29T04:24:50;100638.22;;;11.55;52.77
74542;BME280;63015;45.378;20.360;2023-04-29T04:26:51;100639.09;;;11.52;52.91
74542;BME280;63015;45.378;20.360;2023-04-29T04:28:56;100647.81;;;11.55;52.71
74542;BME280;63015;45.378;20.360;2023-04-29T04:31:26;100651.28;;;11.60;52.70
74542;BME280;63015;45.378;20.360;2023-04-29T04:33:27;100647.78;;;11.65;52.56
74542;BME280;63015;45.378;20.360;2023-04-29T04:35:27;100648.69;;;11.58;52.81
74542;BME280;63015;45.378;20.360;2023-04-29T04:37:28;100643.44;;;11.61;52.57
74542;BME280;63015;45.378;20.360;2023-04-29T04:39:31;100643.44;;;11.67;52.51
74542;BME280;63015;45.378;20.360;2023-04-29T04:41:32;100642.56;;;11.76;52.40
74542;BME280;63015;45.378;20.360;2023-04-29T04:43:34;100636.47;;;11.77;52.42
74542;BME280;63015;45.378;20.360;2023-04-29T04:45:35;100636.47;;;11.71;52.72
74542;BME280;63015;45.378;20.360;2023-04-29T04:47:36;100635.59;;;11.74;52.75
74542;BME280;63015;45.378;20.360;2023-04-29T04:49:51;100636.44;;;11.80;52.64
74542;BME280;63015;45.378;20.360;2023-04-29T04:51:55;100646.03;;;11.81;52.70
74542;BME280;63015;45.378;20.360;2023-04-29T04:53:56;100643.38;;;11.84;52.95
74542;BME280;63015;45.378;20.360;2023-04-29T04:56:01;100636.41;;;11.90;53.09
74542;BME280;63015;45.378;20.360;2023-04-29T04:58:03;100638.16;;;11.86;53.51
74542;BME280;63015;45.378;20.360;2023-04-29T05:00:04;100636.41;;;12.02;52.76
74542;BME280;63015;45.378;20.360;2023-04-29T05:02:06;100630.28;;;12.08;52.82
74542;BME280;63015;45.378;20.360;2023-04-29T05:04:07;100644.22;;;12.11;52.87
74542;BME280;63015;45.378;20.360;2023-04-29T05:06:08;100640.72;;;12.09;52.74
74542;BME280;63015;45.378;20.360;2023-04-29T05:08:09;100642.47;;;12.15;52.88
74542;BME280;63015;45.378;20.360;2023-04-29T05:10:17;100642.47;;;12.13;53.05
74542;BME280;63015;45.378;20.360;2023-04-29T05:12:28;100633.72;;;12.22;52.60
74542;BME280;63015;45.378;20.360;2023-04-29T05:14:34;100632.88;;;12.19;52.65
74542;BME280;63015;45.378;20.360;2023-04-29T05:16:35;100641.63;;;12.10;52.99
74542;BME280;63015;45.378;20.360;2023-04-29T05:18:36;100642.47;;;12.13;52.65
74542;BME280;63015;45.378;20.360;2023-04-29T05:20:36;100640.72;;;12.12;52.70
74542;BME280;63015;45.378;20.360;2023-04-29T05:22:38;100639.88;;;12.09;52.63
74542;BME280;63015;45.378;20.360;2023-04-29T05:24:38;100642.47;;;12.10;53.08
74542;BME280;63015;45.378;20.360;2023-04-29T05:26:39;100642.47;;;12.13;52.68
74542;BME280;63015;45.378;20.360;2023-04-29T05:28:41;100645.97;;;12.08;53.13
74542;BME280;63015;45.378;20.360;2023-04-29T05:30:43;100643.34;;;12.06;53.23
74542;BME280;63015;45.378;20.360;2023-04-29T05:32:44;100645.06;;;12.12;52.98
74542;BME280;63015;45.378;20.360;2023-04-29T05:34:52;100645.91;;;12.22;52.98
74542;BME280;63015;45.378;20.360;2023-04-29T05:36:54;100644.13;;;12.28;52.85
74542;BME280;63015;45.378;20.360;2023-04-29T05:38:55;100647.59;;;12.32;52.79
74542;BME280;63015;45.378;20.360;2023-04-29T05:40:56;100654.59;;;12.33;52.94
74542;BME280;63015;45.378;20.360;2023-04-29T05:43:26;100656.28;;;12.39;52.93
74542;BME280;63015;45.378;20.360;2023-04-29T05:45:28;100653.69;;;12.32;53.30
74542;BME280;63015;45.378;20.360;2023-04-29T05:47:28;100653.72;;;12.29;53.43
74542;BME280;63015;45.378;20.360;2023-04-29T05:49:29;100656.34;;;12.29;53.27
74542;BME280;63015;45.378;20.360;2023-04-29T05:51:29;100654.59;;;12.33;53.09
74542;BME280;63015;45.378;20.360;2023-04-29T05:53:32;100660.69;;;12.30;53.39
74542;BME280;63015;45.378;20.360;2023-04-29T05:55:32;100660.69;;;12.32;53.29
74542;BME280;63015;45.378;20.360;2023-04-29T05:57:33;100663.31;;;12.29;53.36
74542;BME280;63015;45.378;20.360;2023-04-29T05:59:34;100664.16;;;12.31;53.39
74542;BME280;63015;45.378;20.360;2023-04-29T06:01:38;100660.66;;;12.33;53.10
74542;BME280;63015;45.378;20.360;2023-04-29T06:03:39;100661.47;;;12.46;52.82
74542;BME280;63015;45.378;20.360;2023-04-29T06:06:00;100662.34;;;12.45;52.91
74542;BME280;63015;45.378;20.360;2023-04-29T06:08:13;100659.69;;;12.52;52.79
74542;BME280;63015;45.378;20.360;2023-04-29T06:10:26;100668.38;;;12.61;52.57
74542;BME280;63015;45.378;20.360;2023-04-29T06:12:27;100670.97;;;12.68;52.44
74542;BME280;63015;45.378;20.360;2023-04-29T06:14:27;100660.47;;;12.72;52.45
74542;BME280;63015;45.378;20.360;2023-04-29T06:16:28;100664.75;;;12.86;52.56
74542;BME280;63015;45.378;20.360;2023-04-29T06:18:29;100661.19;;;12.93;52.56
74542;BME280;63015;45.378;20.360;2023-04-29T06:20:31;100655.91;;;13.02;52.55
74542;BME280;63015;45.378;20.360;2023-04-29T06:22:32;100650.59;;;13.10;52.50
74542;BME280;63015;45.378;20.360;2023-04-29T06:24:33;100656.72;;;13.07;53.30
74542;BME280;63015;45.378;20.360;2023-04-29T06:26:34;100654.06;;;13.15;52.47
74542;BME280;63015;45.378;20.360;2023-04-29T06:28:36;100657.53;;;13.19;52.27
74542;BME280;63015;45.378;20.360;2023-04-29T06:30:37;100654.81;;;13.31;52.21
74542;BME280;63015;45.378;20.360;2023-04-29T06:32:38;100648.78;;;13.23;52.37
74542;BME280;63015;45.378;20.360;2023-04-29T06:34:40;100638.16;;;13.44;51.60
74542;BME280;63015;45.378;20.360;2023-04-29T06:37:01;100652.00;;;13.59;51.43
74542;BME280;63015;45.378;20.360;2023-04-29T06:39:26;100653.69;;;13.63;50.93
74542;BME280;63015;45.378;20.360;2023-04-29T06:41:45;100649.13;;;13.80;50.64
74542;BME280;63015;45.378;20.360;2023-04-29T06:44:18;100649.06;;;13.88;50.43
74542;BME280;63015;45.378;20.360;2023-04-29T06:46:45;100639.31;;;14.01;50.15
74542;BME280;63015;45.378;20.360;2023-04-29T06:49:08;100634.91;;;14.03;50.02
74542;BME280;63015;45.378;20.360;2023-04-29T06:51:09;100640.94;;;14.11;49.71
74542;BME280;63015;45.378;20.360;2023-04-29T06:53:11;100633.72;;;14.29;49.77
74542;BME280;63015;45.378;20.360;2023-04-29T06:55:14;100627.53;;;14.36;49.28
74542;BME280;63015;45.378;20.360;2023-04-29T06:57:16;100625.72;;;14.40;49.07
74542;BME280;63015;45.378;20.360;2023-04-29T06:59:19;100633.50;;;14.46;48.09
74542;BME280;63015;45.378;20.360;2023-04-29T07:01:20;100636.94;;;14.51;48.47
74542;BME280;63015;45.378;20.360;2023-04-29T07:03:21;100636.16;;;14.44;48.25
74542;BME280;63015;45.378;20.360;2023-04-29T07:05:22;100643.06;;;14.50;47.80
74542;BME280;63015;45.378;20.360;2023-04-29T07:07:22;100640.38;;;14.55;47.79
74542;BME280;63015;45.378;20.360;2023-04-29T07:09:24;100646.47;;;14.55;48.08
74542;BME280;63015;45.378;20.360;2023-04-29T07:11:26;100644.00;;;14.46;47.84
74542;BME280;63015;45.378;20.360;2023-04-29T07:13:27;100641.41;;;14.44;47.77
74542;BME280;63015;45.378;20.360;2023-04-29T07:15:28;100648.41;;;14.44;47.40
74542;BME280;63015;45.378;20.360;2023-04-29T07:17:29;100651.00;;;14.45;47.67
74542;BME280;63015;45.378;20.360;2023-04-29T07:19:31;100650.06;;;14.50;47.81
74542;BME280;63015;45.378;20.360;2023-04-29T07:21:31;100647.41;;;14.54;47.38
74542;BME280;63015;45.378;20.360;2023-04-29T07:23:32;100650.00;;;14.54;47.28
74542;BME280;63015;45.378;20.360;2023-04-29T07:25:33;100652.63;;;14.54;47.29
74542;BME280;63015;45.378;20.360;2023-04-29T07:27:34;100658.63;;;14.62;47.09
74542;BME280;63015;45.378;20.360;2023-04-29T07:29:35;100649.03;;;14.65;47.16
74542;BME280;63015;45.378;20.360;2023-04-29T07:31:37;100655.97;;;14.66;47.17
74542;BME280;63015;45.378;20.360;2023-04-29T07:33:38;100659.53;;;14.60;47.08
74542;BME280;63015;45.378;20.360;2023-04-29T07:35:39;100657.75;;;14.63;47.27
74542;BME280;63015;45.378;20.360;2023-04-29T07:37:43;100662.16;;;14.65;47.29
74542;BME280;63015;45.378;20.360;2023-04-29T07:39:45;100667.38;;;14.66;47.61
74542;BME280;63015;45.378;20.360;2023-04-29T07:41:46;100664.56;;;14.77;47.60
74542;BME280;63015;45.378;20.360;2023-04-29T07:43:47;100667.88;;;14.90;47.57
74542;BME280;63015;45.378;20.360;2023-04-29T07:45:48;100667.81;;;14.96;47.18
74542;BME280;63015;45.378;20.360;2023-04-29T07:47:49;100673.09;;;14.93;47.30
74542;BME280;63015;45.378;20.360;2023-04-29T07:49:49;100668.72;;;14.93;46.98
74542;BME280;63015;45.378;20.360;2023-04-29T07:51:50;100671.28;;;14.98;47.17
74542;BME280;63015;45.378;20.360;2023-04-29T07:53:51;100670.25;;;15.07;47.26
74542;BME280;63015;45.378;20.360;2023-04-29T07:55:51;100669.41;;;15.06;46.81
74542;BME280;63015;45.378;20.360;2023-04-29T07:57:55;100673.84;;;15.01;47.17
74542;BME280;63015;45.378;20.360;2023-04-29T07:59:56;100678.13;;;15.08;47.35
74542;BME280;63015;45.378;20.360;2023-04-29T08:01:56;100679.84;;;15.09;47.43
74542;BME280;63015;45.378;20.360;2023-04-29T08:03:57;100679.81;;;15.12;47.35
74542;BME280;63015;45.378;20.360;2023-04-29T08:06:01;100674.59;;;15.09;46.76
74542;BME280;63015;45.378;20.360;2023-04-29T08:08:02;100673.88;;;15.00;46.11
74542;BME280;63015;45.378;20.360;2023-04-29T08:10:03;100679.19;;;14.95;45.48
74542;BME280;63015;45.378;20.360;2023-04-29T08:12:04;100680.03;;;14.97;45.90
74542;BME280;63015;45.378;20.360;2023-04-29T08:14:05;100686.00;;;15.08;45.83
74542;BME280;63015;45.378;20.360;2023-04-29T08:16:06;100682.34;;;15.17;45.88
74542;BME280;63015;45.378;20.360;2023-04-29T08:18:08;100682.22;;;15.25;45.78
74542;BME280;63015;45.378;20.360;2023-04-29T08:20:09;100673.31;;;15.34;46.00
74542;BME280;63015;45.378;20.360;2023-04-29T08:22:10;100670.91;;;15.21;46.25
74542;BME280;63015;45.378;20.360;2023-04-29T08:24:11;100667.13;;;15.39;45.97
74542;BME280;63015;45.378;20.360;2023-04-29T08:26:13;100660.00;;;15.46;45.45
74542;BME280;63015;45.378;20.360;2023-04-29T08:28:13;100663.34;;;15.54;45.42
74542;BME280;63015;45.378;20.360;2023-04-29T08:30:14;100659.41;;;15.78;44.73
74542;BME280;63015;45.378;20.360;2023-04-29T08:32:14;100645.00;;;16.01;44.49
74542;BME280;63015;45.378;20.360;2023-04-29T08:34:15;100650.00;;;16.56;44.41
74542;BME280;63015;45.378;20.360;2023-04-29T08:36:16;100652.47;;;17.03;42.67
74542;BME280;63015;45.378;20.360;2023-04-29T08:38:16;100637.81;;;17.29;42.72
74542;BME280;63015;45.378;20.360;2023-04-29T08:40:17;100644.97;;;17.22;42.18
74542;BME280;63015;45.378;20.360;2023-04-29T08:42:20;100642.28;;;17.25;41.81
74542;BME280;63015;45.378;20.360;2023-04-29T08:44:30;100644.00;;;17.26;42.12
74542;BME280;63015;45.378;20.360;2023-04-29T08:46:33;100640.66;;;17.87;41.48
74542;BME280;63015;45.378;20.360;2023-04-29T08:48:36;100642.53;;;18.45;40.63
74542;BME280;63015;45.378;20.360;2023-04-29T08:50:40;100645.16;;;19.03;39.54
74542;BME280;63015;45.378;20.360;2023-04-29T08:52:41;100630.88;;;19.61;39.60
74542;BME280;63015;45.378;20.360;2023-04-29T08:54:42;100637.59;;;20.20;37.81
74542;BME280;63015;45.378;20.360;2023-04-29T08:56:45;100639.25;;;20.23;36.74
74542;BME280;63015;45.378;20.360;2023-04-29T08:58:46;100640.03;;;20.25;35.68
74542;BME280;63015;45.378;20.360;2023-04-29T09:00:51;100635.13;;;19.92;36.13
74542;BME280;63015;45.378;20.360;2023-04-29T09:02:53;100633.25;;;19.68;36.72
74542;BME280;63015;45.378;20.360;2023-04-29T09:05:04;100635.09;;;19.41;37.67
74542;BME280;63015;45.378;20.360;2023-04-29T09:07:09;100634.47;;;19.33;37.16
74542;BME280;63015;45.378;20.360;2023-04-29T09:09:12;100632.41;;;19.43;37.38
74542;BME280;63015;45.378;20.360;2023-04-29T09:11:14;100621.34;;;19.57;37.79
74542;BME280;63015;45.378;20.360;2023-04-29T09:13:23;100619.97;;;19.70;37.90
74542;BME280;63015;45.378;20.360;2023-04-29T09:15:24;100615.50;;;19.72;37.16
74542;BME280;63015;45.378;20.360;2023-04-29T09:17:41;100621.88;;;19.66;37.60
74542;BME280;63015;45.378;20.360;2023-04-29T09:19:43;100620.09;;;19.67;38.07
74542;BME280;63015;45.378;20.360;2023-04-29T09:21:53;100623.38;;;19.48;37.87
74542;BME280;63015;45.378;20.360;2023-04-29T09:24:02;100630.88;;;19.35;37.64
74542;BME280;63015;45.378;20.360;2023-04-29T09:26:02;100626.31;;;19.14;38.34
74542;BME280;63015;45.378;20.360;2023-04-29T09:28:15;100628.72;;;19.47;38.34
74542;BME280;63015;45.378;20.360;2023-04-29T09:30:18;100620.13;;;19.65;38.53
74542;BME280;63015;45.378;20.360;2023-04-29T09:32:20;100620.53;;;19.80;37.77
74542;BME280;63015;45.378;20.360;2023-04-29T09:34:34;100618.44;;;19.64;37.39
74542;BME280;63015;45.378;20.360;2023-04-29T09:38:52;100616.59;;;20.15;37.15
74542;BME280;63015;45.378;20.360;2023-04-29T09:40:54;100619.53;;;20.31;36.71
74542;BME280;63015;45.378;20.360;2023-04-29T09:42:56;100613.97;;;20.37;36.65
74542;BME280;63015;45.378;20.360;2023-04-29T09:44:56;100622.06;;;20.34;36.98
74542;BME280;63015;45.378;20.360;2023-04-29T09:46:59;100614.19;;;20.55;37.02
74542;BME280;63015;45.378;20.360;2023-04-29T09:49:02;100616.59;;;20.61;37.03
74542;BME280;63015;45.378;20.360;2023-04-29T09:51:06;100620.69;;;20.46;36.60
74542;BME280;63015;45.378;20.360;2023-04-29T09:53:09;100612.91;;;20.43;36.32
74542;BME280;63015;45.378;20.360;2023-04-29T09:55:09;100610.22;;;20.21;36.74
74542;BME280;63015;45.378;20.360;2023-04-29T09:57:11;100613.28;;;20.32;36.64
74542;BME280;63015;45.378;20.360;2023-04-29T09:59:14;100608.00;;;20.32;36.99
74542;BME280;63015;45.378;20.360;2023-04-29T10:01:15;100608.88;;;20.09;37.21
74542;BME280;63015;45.378;20.360;2023-04-29T10:03:20;100609.13;;;20.27;37.19
74542;BME280;63015;45.378;20.360;2023-04-29T10:05:21;100607.09;;;20.33;37.23
74542;BME280;63015;45.378;20.360;2023-04-29T10:07:24;100603.91;;;20.47;36.79
74542;BME280;63015;45.378;20.360;2023-04-29T10:09:25;100602.75;;;20.54;36.66
74542;BME280;63015;45.378;20.360;2023-04-29T10:11:26;100600.03;;;20.56;36.50
74542;BME280;63015;45.378;20.360;2023-04-29T10:13:27;100603.66;;;20.53;36.49
74542;BME280;63015;45.378;20.360;2023-04-29T10:15:35;100597.53;;;20.29;37.00
74542;BME280;63015;45.378;20.360;2023-04-29T10:17:48;100598.16;;;20.36;36.99
74542;BME280;63015;45.378;20.360;2023-04-29T10:19:57;100595.22;;;20.44;37.12
74542;BME280;63015;45.378;20.360;2023-04-29T10:22:27;100589.78;;;20.70;36.32
74542;BME280;63015;45.378;20.360;2023-04-29T10:24:26;100599.56;;;20.91;36.45
74542;BME280;63015;45.378;20.360;2023-04-29T10:26:28;100595.41;;;21.06;36.07
74542;BME280;63015;45.378;20.360;2023-04-29T10:28:32;100591.44;;;21.16;36.43
74542;BME280;63015;45.378;20.360;2023-04-29T10:30:33;100589.28;;;21.26;35.89
74542;BME280;63015;45.378;20.360;2023-04-29T10:32:35;100587.63;;;21.44;35.51
74542;BME280;63015;45.378;20.360;2023-04-29T10:34:37;100592.75;;;21.69;34.88
74542;BME280;63015;45.378;20.360;2023-04-29T10:36:41;100581.44;;;21.84;34.94
74542;BME280;63015;45.378;20.360;2023-04-29T10:38:45;100587.41;;;21.90;34.65
74542;BME280;63015;45.378;20.360;2023-04-29T10:40:49;100580.88;;;22.16;34.22
74542;BME280;63015;45.378;20.360;2023-04-29T10:42:52;100585.81;;;22.24;34.38
74542;BME280;63015;45.378;20.360;2023-04-29T10:47:19;100579.28;;;22.50;34.28
74542;BME280;63015;45.378;20.360;2023-04-29T10:49:20;100576.38;;;22.74;34.13
74542;BME280;63015;45.378;20.360;2023-04-29T10:51:50;100568.19;;;22.42;34.40